SLRY  Reyes Airport

Add Bookmark

Reyes, Bolivia

Status IATA
Operational REY
Latitude Longitude
14° 18' 15" S 67° 21' 12" W
-14.304400 -67.353401
Local (DST -4) UTC (GMT -4)
Feb 27, 2015 03:25 Feb 27, 2015 07:25
Sunrise-Sunset Local UTC
Begin Civil Twilight 06:07 10:07
Sunrise 06:29 10:29
Sunset 06:54 22:54
End Civil Twilight 07:16 23:16

Current Weather

METAR Observed VFR
SLRY 262200Z 00000KT 9999 FEW020 32/24 Q1006 Thu, Feb 26, 2015 @ 22:00 UTC
(9 Hours, 25 Minutes ago)
Visual Flight Rules
Wind Visibility Clouds Conditions
Calm 10 km or more
  • Few at 2,000' AGL
  • No significant weather
Temperatures Readings Precipitation
Current Temp 32°C (90°F)
Dewpoint 24°C (75°F)
Heat Index 38°C (101°F)
Humidity 63%
Altimeter 29.7"Hg
Sea Level Pressure 1006mb
Field Elevation 918.64'
None Recorded

Additional weather within a 92.6km radius of SLRY

Map ICAO Location
SLRQ 20.7km S (229°)

24 Hour Weather History

Loading
-

24 Hour Weather Graphs

Loading
-

CheckWX.com is intended as a tool to help pilots better visualize weather data. It is not intended as a substitute for an official weather briefing obtained from a Flight Service Station. CheckWX.com does not meet the FAA requirements for an official pre-flight weather briefing. Therefore, it's important that pilots still call and obtain an official FSS pre-flight weather briefing.